INFORMACIÓN METAR y TAF
METAR FOR ESKM
ADDS - METARS form results

(0747 UTC 15 April 2021)
Data provider http://aviationweather.gov/metar/data/
 
METAR text: ESKM 150720Z AUTO 01004KT 330V050 9999 R16/P2000N R34///// NCD 05/M04 Q1034
Conditions at: ESKM (SILJAN/MORA , SE) observed 0720 UTC 15 April 2021
Temperature: 5.0°C (41°F)
Dewpoint: -4.0°C (25°F) [RH = 52%]
Pressure (altimeter): 30.53 inches Hg (1034.0 mb)
Winds: from the N (10 degrees) at 5 MPH (4 knots; 2.1 m/s)
Visibility: 6 or more miles (10+ km)
Ceiling: at least 12,000 feet AGL
Clouds: sky clear below 12,000 feet AGL
Weather: no significant weather observed at this time

METAR text: ESKM 150650Z AUTO 34005KT 310V010 9999 R16/P2000N R34///// NCD 04/M03 Q1034
Conditions at: ESKM (SILJAN/MORA , SE) observed 0650 UTC 15 April 2021
Temperature: 4.0°C (39°F)
Dewpoint: -3.0°C (27°F) [RH = 60%]
Pressure (altimeter): 30.53 inches Hg (1034.0 mb)
Winds: from the NNW (340 degrees) at 6 MPH (5 knots; 2.6 m/s)
Visibility: 6 or more miles (10+ km)
Ceiling: at least 12,000 feet AGL
Clouds: sky clear below 12,000 feet AGL
Weather: no significant weather observed at this time

 MAPA DE AEROPUERTO

 INFORMACIÓN DE PISTA
Pista 16 Longitud 5951 ft Ancho 148 ft
Elevación 631 ft Umbral desplazado 0 ft Rumbo de pista 161
Pista 34 Longitud 5951 ft Ancho 148 ft
Elevación 617 ft Umbral desplazado 0 ft Rumbo de pista 341

 FRECUANCIAS DEL AEROPUERTO
Tipo AFIS Nombre AFIS Frecuencia 129.85 MHZ

 RADIO AYUDAS DEL AEROPUERTO
Tipo NDB Nombre N Mora Frecuencia 403 KHZ



Powered by Virtual Airlines Manager [v2.6.2]